Latest Coastal Weather Observations for Burnie Port

IDT60701

Issued at 1:35 am EST Wednesday 23 July 2014 (issued every 10 minutes, with the page automatically refreshed every 10 minutes)

About coastal observations | Map of coastal stations | Coastal observations for TAS | Marine services | Other Formats
Station Details ID: 091344 Name: BURNIE NTC AWS Lat: -41.05 Lon: 145.91 Height: 0.0 m
Data from the previous 72 hours. | See also: Recent months for locations in Tasmania
Date/Time
EST
Temp

°C
Wind Pressure Rain
since 9am
mm
Weather Cloud Vis
km
Sea
Height
m
Swell
Dir
 
Speed
knots
Gust
knots
hPa Trend Height
m
Period
s
Dir
23/01:30am 7.3 SSW 6 6 1024.2 - - - - - - - - -
23/01:00am 7.9 SSW 5 6 1024.2 - - - - - - - - -
23/12:30am 8.2 SSW 6 7 1024.2 - - - - - - - - -
23/12:00am 8.6 SSW 4 5 1024.3 - - - - - - - - -
 
Date/Time
EST
Temp

°C
Wind Pressure Rain
since 9am
mm
Weather Cloud Vis
km
Sea
Height
m
Swell
Dir
 
Speed
knots
Gust
knots
hPa Trend Height
m
Period
s
Dir
22/11:30pm 8.8 SSW 5 7 1024.5 - - - - - - - - -
22/11:00pm 9.2 SSW 5 6 1024.7 - - - - - - - - -
22/10:30pm 9.0 S 4 5 1024.8 - - - - - - - - -
22/10:00pm 8.7 S 6 7 1024.8 - - - - - - - - -
22/09:30pm 9.5 SSW 5 6 1024.9 - - - - - - - - -
22/09:00pm 9.7 S 6 7 1024.7 - - - - - - - - -
22/08:30pm 9.6 SSW 5 6 1024.4 - - - - - - - - -
22/08:00pm 9.8 SSW 3 6 1024.5 - - - - - - - - -
22/07:30pm 10.0 SSW 3 4 1024.6 - - - - - - - - -
22/07:00pm 10.3 S 4 4 1024.6 - - - - - - - - -
22/06:30pm 10.6 SSW 2 2 1024.5 - - - - - - - - -
22/06:00pm 10.8 SSW 2 3 1024.4 - - - - - - - - -
22/05:30pm 10.9 WSW 3 6 1024.2 - - - - - - - - -
22/05:00pm 11.3 NW 6 7 1024.1 - - - - - - - - -
22/04:30pm 11.2 NW 6 8 1024.1 - - - - - - - - -
22/04:00pm 11.1 NW 6 7 1024.1 - - - - - - - - -
22/03:30pm 11.2 NW 6 7 1024.2 - - - - - - - - -
22/03:00pm 11.0 NNW 6 8 1024.2 - - - - - - - - -
22/02:30pm 11.0 NNW 4 5 1024.1 - - - - - - - - -
22/02:00pm 10.9 N 4 5 1024.2 - - - - - - - - -
22/01:30pm 10.8 N 5 6 1024.5 - - - - - - - - -
22/01:00pm 10.7 N 5 6 1024.9 - - - - - - - - -
22/12:30pm 10.4 NNW 4 5 1025.3 - - - - - - - - -
22/12:00pm 10.4 NNW 4 5 1025.6 - - - - - - - - -
22/11:30am 10.4 NNE 2 3 1025.9 - - - - - - - - -
22/11:00am 10.5 E 1 2 1026.3 - - - - - - - - -
22/10:30am 9.6 S 2 2 1026.4 - - - - - - - - -
22/10:00am 8.6 SSE 4 5 1026.6 - - - - - - - - -
22/09:30am 7.7 SSE 4 5 1026.7 - - - - - - - - -
22/09:00am 7.2 S 5 6 1026.4 - - - - - - - - -
22/08:30am 6.9 SSW 3 5 1026.4 - - - - - - - - -
22/08:00am 6.4 SSW 7 9 1025.9 - - - - - - - - -
22/07:30am 6.2 SSW 6 7 1025.5 - - - - - - - - -
22/07:00am 6.5 SSW 7 9 1025.3 - - - - - - - - -
22/06:30am 6.3 S 7 8 1025.1 - - - - - - - - -
22/06:00am 6.4 S 6 7 1025.1 - - - - - - - - -
22/05:30am 6.3 SSW 5 6 1025.0 - - - - - - - - -
22/05:00am 6.8 SSW 6 8 1024.8 - - - - - - - - -
22/04:30am 7.2 SSW 6 7 1024.8 - - - - - - - - -
22/04:00am 7.3 SSW 6 7 1024.6 - - - - - - - - -
22/03:30am 7.6 SSW 6 8 1024.8 - - - - - - - - -
22/03:00am 7.8 SSW 6 8 1024.9 - - - - - - - - -
22/02:30am 8.3 SSW 5 7 1024.9 - - - - - - - - -
22/02:00am 8.8 SSW 6 8 1024.9 - - - - - - - - -
22/01:30am 9.0 SSW 3 6 1024.9 - - - - - - - - -
22/01:00am 9.2 SSW 7 8 1025.1 - - - - - - - - -
22/12:30am 9.3 SSW 7 8 1025.3 - - - - - - - - -
22/12:00am 9.4 SSW 7 8 1025.4 - - - - - - - - -
 
Date/Time
EST
Temp

°C
Wind Pressure Rain
since 9am
mm
Weather Cloud Vis
km
Sea
Height
m
Swell
Dir
 
Speed
knots
Gust
knots
hPa Trend Height
m
Period
s
Dir
21/11:30pm 9.6 SSW 6 8 1025.6 - - - - - - - - -
21/11:00pm 9.7 SSW 5 6 1025.6 - - - - - - - - -
21/10:30pm 9.8 S 4 6 1025.5 - - - - - - - - -
21/10:00pm 9.3 S 4 6 1025.5 - - - - - - - - -
21/09:30pm 10.1 SSW 4 6 1025.6 - - - - - - - - -
21/09:00pm 9.8 S 4 5 1025.5 - - - - - - - - -
21/08:30pm 10.3 SSW 4 4 1025.6 - - - - - - - - -
21/08:00pm 10.0 S 3 4 1025.6 - - - - - - - - -
21/07:30pm 10.3 SSW 3 4 1025.6 - - - - - - - - -
21/07:00pm 10.5 S 3 4 1025.4 - - - - - - - - -
21/06:30pm 10.9 S 3 4 1025.3 - - - - - - - - -
21/06:00pm 10.8 SSW 3 4 1025.2 - - - - - - - - -
21/05:30pm 10.9 S 4 4 1025.1 - - - - - - - - -
21/05:00pm 11.0 S 3 5 1025.0 - - - - - - - - -
21/04:30pm 11.2 SE 6 6 1024.9 - - - - - - - - -
21/04:00pm 11.2 ESE 5 6 1024.8 - - - - - - - - -
21/03:30pm 11.1 ESE 5 6 1024.8 - - - - - - - - -
21/03:00pm 11.1 ESE 6 7 1024.7 - - - - - - - - -
21/02:30pm 11.1 ESE 7 8 1024.7 - - - - - - - - -
21/02:00pm 11.0 E 7 8 1024.9 - - - - - - - - -
21/01:30pm 11.0 ESE 8 9 1025.0 - - - - - - - - -
21/01:00pm 10.8 E 8 10 1025.3 - - - - - - - - -
21/12:30pm 10.8 E 5 8 1025.5 - - - - - - - - -
21/12:00pm 10.7 S 4 5 1025.6 - - - - - - - - -
21/11:30am 10.2 S 5 8 1026.1 - - - - - - - - -
21/11:00am 9.6 S 7 8 1026.5 - - - - - - - - -
21/10:30am 8.9 S 8 9 1026.8 - - - - - - - - -
21/10:00am 8.5 S 5 6 1026.9 - - - - - - - - -
21/09:30am 7.6 S 10 12 1027.0 - - - - - - - - -
21/09:00am 7.5 SSW 5 6 1026.9 - - - - - - - - -
21/08:30am 6.8 SSW 6 9 1026.7 - - - - - - - - -
21/08:00am 6.3 SSW 5 7 1026.6 - - - - - - - - -
21/07:30am 6.3 SSW 6 7 1026.6 - - - - - - - - -
21/07:00am 5.9 SSW 7 8 1026.4 - - - - - - - - -
21/06:30am 5.7 S 6 7 1026.5 - - - - - - - - -
21/06:00am 5.9 SSW 7 8 1026.4 - - - - - - - - -
21/05:30am 5.4 S 6 7 1026.2 - - - - - - - - -
21/05:00am 5.3 S 5 7 1026.2 - - - - - - - - -
21/04:30am 5.3 S 5 7 1026.0 - - - - - - - - -
21/04:00am 5.2 SSW 6 7 1026.0 - - - - - - - - -
21/03:30am 5.4 SSW 5 6 1026.0 - - - - - - - - -
21/03:00am 6.5 SSW 3 4 1026.1 - - - - - - - - -
21/02:30am 6.9 SSW 5 6 1025.9 - - - - - - - - -
21/02:00am 6.6 S 5 7 1025.8 - - - - - - - - -
21/01:30am 6.4 SSW 6 8 1026.0 - - - - - - - - -
21/01:00am 6.0 SSW 6 7 1026.2 - - - - - - - - -
21/12:30am 6.5 SSW 7 8 1026.6 - - - - - - - - -
21/12:00am 6.6 SSW 6 8 1026.7 - - - - - - - - -
 
Date/Time
EST
Temp

°C
Wind Pressure Rain
since 9am
mm
Weather Cloud Vis
km
Sea
Height
m
Swell
Dir
 
Speed
knots
Gust
knots
hPa Trend Height
m
Period
s
Dir
20/11:30pm 6.5 SSW 4 6 1026.8 - - - - - - - - -
20/11:00pm 6.6 SSW 5 7 1026.8 - - - - - - - - -
20/10:30pm 6.9 SSW 4 5 1026.8 - - - - - - - - -
20/10:00pm 7.2 SSW 6 7 1026.7 - - - - - - - - -
20/09:30pm 7.3 SSW 6 7 1026.7 - - - - - - - - -
20/09:00pm 7.3 SSW 5 7 1026.7 - - - - - - - - -
20/08:30pm 7.4 S 5 6 1026.6 - - - - - - - - -
20/08:00pm 7.7 S 5 6 1026.7 - - - - - - - - -
20/07:30pm 7.5 S 5 6 1026.7 - - - - - - - - -
20/07:00pm 7.7 S 4 5 1026.5 - - - - - - - - -
20/06:30pm 8.1 SSW 3 3 1026.2 - - - - - - - - -
20/06:00pm 8.4 S 4 4 1025.9 - - - - - - - - -
20/05:30pm 9.5 WSW 2 3 1025.7 - - - - - - - - -
20/05:00pm 10.8 NNW 3 4 1025.5 - - - - - - - - -
20/04:30pm 10.8 NNE 2 3 1025.3 - - - - - - - - -
20/04:00pm 10.7 NNE 2 3 1025.3 - - - - - - - - -
20/03:30pm 10.6 NNE 2 3 1025.3 - - - - - - - - -
20/03:00pm 10.7 N 2 3 1025.4 - - - - - - - - -
20/02:30pm 10.5 NNW 3 4 1025.5 - - - - - - - - -
20/02:00pm 10.6 N 2 3 1025.8 - - - - - - - - -
20/01:30pm 10.4 NNW 3 5 1025.9 - - - - - - - - -
20/01:00pm 10.1 NNW 4 5 1026.3 - - - - - - - - -
20/12:30pm 10.0 N 3 4 1026.5 - - - - - - - - -
20/12:00pm 10.0 N 3 4 1026.6 - - - - - - - - -

Other Formats:

Comma delimited format used in spreadsheet applications
http://www.bom.gov.au/fwo/IDT60701/IDT60701.95963.axf

JavaScript Object Notation format (JSON) in row-major order
http://www.bom.gov.au/fwo/IDT60701/IDT60701.95963.json